Time;durP1;ratioP1;P1;durP2;ratioP2;P2;SDS_P1;SDS_P2;PMS_P1;PMS_P2;Temp;Humidity;BMP_temperature;BMP_pressure;BME280_temperature;BME280_humidity;BME280_pressure;Samples;Min_cycle;Max_cycle;Signal;HPM_P1;HPM_P2
2023/04/13 00:00:46;;;;;;;3.83;1.80;;;24.30;46.00;;;;;;5043496;28;20063;-64
2023/04/13 00:03:15;;;;;;;3.22;1.80;;;24.30;46.00;;;;;;5039736;28;20033;-63
2023/04/13 00:05:41;;;;;;;2.47;1.52;;;24.30;46.00;;;;;;5041300;28;20082;-63
2023/04/13 00:08:07;;;;;;;2.58;1.40;;;24.30;46.00;;;;;;5037663;28;20033;-63
2023/04/13 00:10:35;;;;;;;3.72;1.75;;;24.30;46.00;;;;;;5038208;28;20025;-63
2023/04/13 00:13:04;;;;;;;2.65;1.65;;;24.30;46.00;;;;;;5038070;28;20028;-64
2023/04/13 00:15:31;;;;;;;3.28;1.60;;;24.30;46.00;;;;;;5039392;28;20481;-63
2023/04/13 00:17:57;;;;;;;3.38;1.70;;;24.30;46.00;;;;;;5039989;28;20026;-64
2023/04/13 00:20:23;;;;;;;3.47;1.70;;;24.30;45.90;;;;;;5037503;28;20064;-63
2023/04/13 00:22:48;;;;;;;3.45;1.52;;;24.30;45.90;;;;;;5041266;28;20028;-63
2023/04/13 00:25:15;;;;;;;2.70;1.55;;;24.30;45.90;;;;;;5037157;28;20474;-64
2023/04/13 00:27:42;;;;;;;3.85;1.50;;;24.30;45.90;;;;;;5038969;28;20045;-63
2023/04/13 00:30:10;;;;;;;2.38;1.45;;;24.30;45.90;;;;;;5037366;28;20029;-63
2023/04/13 00:32:37;;;;;;;3.20;1.50;;;24.30;45.90;;;;;;5039260;28;20045;-63
2023/04/13 00:35:03;;;;;;;2.30;1.30;;;24.30;45.80;;;;;;5040316;28;20029;-63
2023/04/13 00:37:29;;;;;;;3.00;1.42;;;24.30;45.70;;;;;;5036906;28;20078;-63
2023/04/13 00:39:55;;;;;;;2.65;1.33;;;24.40;45.80;;;;;;5037419;28;20025;-64
2023/04/13 00:42:21;;;;;;;2.55;1.50;;;24.30;45.80;;;;;;5037952;28;20030;-63
2023/04/13 00:44:46;;;;;;;2.60;1.42;;;24.30;45.70;;;;;;5039142;28;20029;-64
2023/04/13 00:47:16;;;;;;;2.78;1.45;;;24.30;45.70;;;;;;5042786;28;20748;-64
2023/04/13 00:49:43;;;;;;;2.65;1.60;;;24.30;45.70;;;;;;5042042;28;20064;-63
2023/04/13 00:52:10;;;;;;;2.65;1.50;;;24.30;45.70;;;;;;5043323;28;20018;-62
2023/04/13 00:54:37;;;;;;;2.42;1.50;;;24.30;45.70;;;;;;5041338;28;20029;-63
2023/04/13 00:57:04;;;;;;;2.70;1.45;;;24.30;45.70;;;;;;5043874;28;20036;-63
2023/04/13 00:59:30;;;;;;;2.85;1.40;;;24.30;45.70;;;;;;5042961;28;20033;-64
2023/04/13 01:01:55;;;;;;;2.17;1.42;;;24.40;45.70;;;;;;5040923;28;20033;-64
2023/04/13 01:04:23;;;;;;;2.70;1.33;;;24.40;45.70;;;;;;5041525;28;20033;-64
2023/04/13 01:07:01;;;;;;;2.20;1.20;;;24.30;45.60;;;;;;5041971;28;20582;-63
2023/04/13 01:09:39;;;;;;;2.00;1.30;;;24.30;45.60;;;;;;5040483;28;20091;-62
2023/04/13 01:12:11;;;;;;;1.90;1.20;;;24.30;45.70;;;;;;5039862;28;21158;-61
2023/04/13 01:14:43;;;;;;;1.80;1.15;;;24.30;45.70;;;;;;5038194;28;20024;-62
2023/04/13 01:17:31;;;;;;;1.77;1.10;;;24.30;45.70;;;;;;5041856;28;20029;-62
2023/04/13 01:20:11;;;;;;;2.35;1.27;;;24.30;45.70;;;;;;5041080;28;20030;-62
2023/04/13 01:22:44;;;;;;;2.40;1.23;;;24.20;45.70;;;;;;5038793;28;20025;-62
2023/04/13 01:25:30;;;;;;;2.38;1.30;;;24.20;45.80;;;;;;5039394;28;20029;-63
2023/04/13 01:28:06;;;;;;;2.53;1.52;;;24.20;45.80;;;;;;5041993;28;20043;-62
2023/04/13 01:30:34;;;;;;;2.55;1.20;;;24.20;45.70;;;;;;5042086;28;20128;-62
2023/04/13 01:33:01;;;;;;;1.73;1.10;;;24.20;45.80;;;;;;5042411;28;20021;-62
2023/04/13 01:35:28;;;;;;;1.50;1.00;;;24.10;45.70;;;;;;5038320;28;20099;-62
2023/04/13 01:37:56;;;;;;;2.80;1.27;;;24.10;45.80;;;;;;5040789;28;20103;-63
2023/04/13 01:40:23;;;;;;;1.75;1.10;;;24.10;45.70;;;;;;5039401;28;20512;-62
2023/04/13 01:42:49;;;;;;;1.33;1.00;;;24.10;45.70;;;;;;5040754;28;20060;-62
2023/04/13 01:45:15;;;;;;;1.50;0.95;;;24.10;45.80;;;;;;5042830;28;20033;-62
2023/04/13 01:47:49;;;;;;;1.85;1.27;;;24.10;45.80;;;;;;5039081;28;20024;-63
2023/04/13 01:50:24;;;;;;;1.45;1.00;;;24.00;45.80;;;;;;5040363;28;20076;-61
2023/04/13 01:52:53;;;;;;;1.73;1.00;;;24.00;45.80;;;;;;5040672;28;20021;-62
2023/04/13 01:55:21;;;;;;;1.75;1.08;;;24.00;45.80;;;;;;5036365;28;20033;-62
2023/04/13 01:57:49;;;;;;;1.93;1.00;;;23.90;45.80;;;;;;5039839;28;20085;-62
2023/04/13 02:00:17;;;;;;;1.65;1.00;;;23.90;45.80;;;;;;5047819;28;20519;-62
2023/04/13 02:02:43;;;;;;;2.00;1.15;;;23.90;45.80;;;;;;5038854;28;20030;-62
2023/04/13 02:05:09;;;;;;;1.52;1.00;;;23.90;45.80;;;;;;5040026;28;20520;-62
2023/04/13 02:07:38;;;;;;;2.05;1.05;;;23.80;45.80;;;;;;5039919;28;20140;-62
2023/04/13 02:10:05;;;;;;;1.70;0.93;;;23.80;46.30;;;;;;5040222;28;20031;-62
2023/04/13 02:12:32;;;;;;;1.55;1.10;;;23.80;45.80;;;;;;5039768;28;20037;-62
2023/04/13 02:14:59;;;;;;;1.77;1.00;;;23.80;45.80;;;;;;5040010;28;20049;-62
2023/04/13 02:17:28;;;;;;;2.00;1.10;;;23.80;45.90;;;;;;5039188;28;20498;-61
2023/04/13 02:19:57;;;;;;;1.95;0.95;;;23.70;45.80;;;;;;5041329;28;20444;-62
2023/04/13 02:22:23;;;;;;;2.05;1.10;;;23.70;45.90;;;;;;5040207;28;20059;-62
2023/04/13 02:24:50;;;;;;;2.00;1.20;;;23.70;45.90;;;;;;5041211;28;20024;-62
2023/04/13 02:27:16;;;;;;;1.63;1.10;;;23.70;45.90;;;;;;5039793;28;20116;-62
2023/04/13 02:29:42;;;;;;;2.50;1.23;;;23.70;45.90;;;;;;5040615;28;20021;-62
2023/04/13 02:32:08;;;;;;;1.85;1.10;;;23.60;45.90;;;;;;5040632;28;20433;-62
2023/04/13 02:34:34;;;;;;;1.67;1.10;;;23.60;46.00;;;;;;5038831;28;20128;-62
2023/04/13 02:37:00;;;;;;;1.65;1.00;;;23.60;46.00;;;;;;5038993;28;20036;-62
2023/04/13 02:39:25;;;;;;;1.50;1.10;;;23.60;46.00;;;;;;5038721;28;20389;-62
2023/04/13 02:41:51;;;;;;;1.25;0.95;;;23.60;46.00;;;;;;5039628;28;20101;-61
2023/04/13 02:44:17;;;;;;;1.52;0.90;;;23.50;46.00;;;;;;5038348;28;20481;-62
2023/04/13 02:46:42;;;;;;;1.42;0.90;;;23.50;46.00;;;;;;5038938;28;20603;-62
2023/04/13 02:49:08;;;;;;;2.08;1.02;;;23.50;46.00;;;;;;5040170;28;20483;-62
2023/04/13 02:51:34;;;;;;;2.03;1.10;;;23.50;46.10;;;;;;5042801;28;20110;-62
2023/04/13 02:54:03;;;;;;;1.90;1.10;;;23.50;46.10;;;;;;5039356;28;20327;-61
2023/04/13 02:56:29;;;;;;;1.63;0.90;;;23.40;46.00;;;;;;5037202;28;20028;-61
2023/04/13 02:58:56;;;;;;;2.67;1.30;;;23.40;46.00;;;;;;5038527;28;20044;-61
2023/04/13 03:01:23;;;;;;;1.25;0.90;;;23.40;46.10;;;;;;5039228;28;20022;-62
2023/04/13 03:03:49;;;;;;;1.48;1.08;;;23.40;46.00;;;;;;5036462;28;20043;-62
2023/04/13 03:06:15;;;;;;;2.33;1.20;;;23.40;46.20;;;;;;5036617;28;20082;-62
2023/04/13 03:08:41;;;;;;;1.40;0.90;;;23.40;46.10;;;;;;5039527;28;20104;-62
2023/04/13 03:11:09;;;;;;;1.60;1.02;;;23.40;46.10;;;;;;5039678;28;20112;-62
2023/04/13 03:13:35;;;;;;;1.65;0.98;;;23.30;46.10;;;;;;5037097;28;20032;-62
2023/04/13 03:16:01;;;;;;;1.50;1.00;;;23.30;46.10;;;;;;5040255;28;20032;-62
2023/04/13 03:18:27;;;;;;;1.58;0.98;;;23.30;46.10;;;;;;5037188;28;20051;-63
2023/04/13 03:20:52;;;;;;;1.63;1.00;;;23.30;46.20;;;;;;5040127;28;20037;-61
2023/04/13 03:23:18;;;;;;;1.85;1.00;;;23.30;46.20;;;;;;5040431;28;20426;-62
2023/04/13 03:25:44;;;;;;;1.15;0.80;;;23.30;46.20;;;;;;5035389;28;20037;-60
2023/04/13 03:28:10;;;;;;;1.15;0.80;;;23.20;46.10;;;;;;5039016;28;20026;-60
2023/04/13 03:30:36;;;;;;;2.35;1.35;;;23.20;46.10;;;;;;5038068;28;20449;-62
2023/04/13 03:33:01;;;;;;;1.67;1.00;;;23.20;46.20;;;;;;5037856;28;20029;-62
2023/04/13 03:35:27;;;;;;;1.40;0.90;;;23.20;46.20;;;;;;5041776;28;20119;-62
2023/04/13 03:37:53;;;;;;;1.58;0.90;;;23.20;46.20;;;;;;5038758;28;20469;-62
2023/04/13 03:40:18;;;;;;;1.58;0.98;;;23.20;46.20;;;;;;5036605;28;20026;-62
2023/04/13 03:42:44;;;;;;;1.60;0.95;;;23.20;46.20;;;;;;5038015;28;20044;-62
2023/04/13 03:45:10;;;;;;;1.48;0.88;;;23.10;46.10;;;;;;5037670;28;20080;-62
2023/04/13 03:47:37;;;;;;;1.60;1.00;;;23.10;46.10;;;;;;5042590;28;20036;-62
2023/04/13 03:50:03;;;;;;;1.75;1.00;;;23.10;46.20;;;;;;5042014;28;20025;-62
2023/04/13 03:52:30;;;;;;;1.73;1.00;;;23.10;46.20;;;;;;5041631;28;20064;-62
2023/04/13 03:54:56;;;;;;;1.13;0.82;;;23.10;46.20;;;;;;5037171;28;20153;-62
2023/04/13 03:57:21;;;;;;;1.30;1.00;;;23.00;46.20;;;;;;5037054;28;20444;-62
2023/04/13 03:59:47;;;;;;;2.22;1.00;;;23.10;46.20;;;;;;5037131;28;20083;-62
2023/04/13 04:02:12;;;;;;;2.88;0.90;;;23.00;46.20;;;;;;5040582;28;20021;-62
2023/04/13 04:04:38;;;;;;;1.38;0.88;;;23.00;46.20;;;;;;5040810;28;20488;-62
2023/04/13 04:07:04;;;;;;;1.55;0.90;;;23.00;46.20;;;;;;5037531;28;20052;-62
2023/04/13 04:09:30;;;;;;;1.55;0.90;;;23.00;46.20;;;;;;5037164;28;20056;-62
2023/04/13 04:11:56;;;;;;;1.42;1.00;;;23.00;46.20;;;;;;5038088;28;20129;-63
2023/04/13 04:14:22;;;;;;;1.63;0.90;;;23.00;46.20;;;;;;5034529;28;20116;-64
2023/04/13 04:16:47;;;;;;;1.35;0.98;;;23.00;46.20;;;;;;5034812;28;20551;-64
2023/04/13 04:19:13;;;;;;;1.48;1.00;;;23.00;46.20;;;;;;5038367;28;20741;-64
2023/04/13 04:21:45;;;;;;;1.30;0.80;;;22.90;46.20;;;;;;5042504;28;20036;-63
2023/04/13 04:24:19;;;;;;;2.50;0.80;;;22.90;46.20;;;;;;5041916;28;20507;-63
2023/04/13 04:26:48;;;;;;;1.58;0.80;;;22.90;46.20;;;;;;5040750;28;20041;-63
2023/04/13 04:29:16;;;;;;;1.20;0.90;;;22.90;46.30;;;;;;5044581;28;20504;-63
2023/04/13 04:31:43;;;;;;;1.05;0.70;;;22.90;46.30;;;;;;5043257;28;20025;-63
2023/04/13 04:34:09;;;;;;;1.08;0.80;;;22.90;46.30;;;;;;5041874;28;20025;-63
2023/04/13 04:36:40;;;;;;;1.10;0.80;;;22.90;46.30;;;;;;5041446;28;20469;-63
2023/04/13 04:39:07;;;;;;;1.70;1.00;;;22.90;46.30;;;;;;5041974;28;20205;-63
2023/04/13 04:41:36;;;;;;;0.80;0.70;;;22.90;46.30;;;;;;5040605;28;20412;-63
2023/04/13 04:44:02;;;;;;;1.13;0.80;;;22.90;46.30;;;;;;5043543;28;20162;-63
2023/04/13 04:46:28;;;;;;;1.38;0.82;;;22.80;46.30;;;;;;5041917;28;20401;-63
2023/04/13 04:48:54;;;;;;;1.17;0.77;;;22.80;46.30;;;;;;5041577;28;20036;-64
2023/04/13 04:51:23;;;;;;;1.50;0.80;;;22.80;46.30;;;;;;5042265;28;20033;-64
2023/04/13 04:53:50;;;;;;;1.30;0.80;;;22.80;46.30;;;;;;5042895;28;20478;-63
2023/04/13 04:56:16;;;;;;;1.40;0.93;;;22.80;46.30;;;;;;5041280;28;20725;-63
2023/04/13 04:58:41;;;;;;;1.38;0.90;;;22.80;46.40;;;;;;5041588;28;20021;-63
2023/04/13 05:01:07;;;;;;;1.15;0.80;;;22.70;46.40;;;;;;5040307;28;20029;-63
2023/04/13 05:03:33;;;;;;;1.05;0.80;;;22.70;46.40;;;;;;5042436;28;20017;-63
2023/04/13 05:05:58;;;;;;;1.25;0.70;;;22.70;46.40;;;;;;5040996;28;20116;-63
2023/04/13 05:08:24;;;;;;;1.02;0.70;;;22.70;46.50;;;;;;5041419;28;20484;-63
2023/04/13 05:10:50;;;;;;;0.90;0.70;;;22.70;46.50;;;;;;5043161;28;20030;-63
2023/04/13 05:13:16;;;;;;;1.35;0.80;;;22.70;46.50;;;;;;5038851;28;20793;-63
2023/04/13 05:15:41;;;;;;;1.35;0.70;;;22.70;47.00;;;;;;5040040;28;20036;-63
2023/04/13 05:18:07;;;;;;;1.38;0.90;;;22.70;46.40;;;;;;5042713;28;20044;-63
2023/04/13 05:20:33;;;;;;;1.45;0.90;;;22.70;46.30;;;;;;5041122;28;20040;-63
2023/04/13 05:22:59;;;;;;;1.25;0.80;;;22.70;46.30;;;;;;5039520;28;20021;-63
2023/04/13 05:25:25;;;;;;;1.02;0.70;;;22.70;46.20;;;;;;5043592;28;20033;-61
2023/04/13 05:27:51;;;;;;;0.82;0.73;;;22.70;46.20;;;;;;5039600;28;20038;-61
2023/04/13 05:30:17;;;;;;;1.30;0.88;;;22.60;46.10;;;;;;5040016;28;20025;-61
2023/04/13 05:32:43;;;;;;;1.30;0.70;;;22.60;46.10;;;;;;5040450;28;20032;-61
2023/04/13 05:35:09;;;;;;;1.00;0.70;;;22.60;46.10;;;;;;5041286;28;20389;-61
2023/04/13 05:37:35;;;;;;;1.02;0.77;;;22.60;46.20;;;;;;5041244;28;20083;-61
2023/04/13 05:40:01;;;;;;;1.02;0.70;;;22.60;46.20;;;;;;5042238;28;20100;-61
2023/04/13 05:42:27;;;;;;;0.90;0.70;;;22.60;46.10;;;;;;5039704;28;20116;-63
2023/04/13 05:44:52;;;;;;;1.42;0.80;;;22.60;46.10;;;;;;5041632;28;20108;-62
2023/04/13 05:47:21;;;;;;;0.88;0.60;;;22.60;46.20;;;;;;5038783;28;20068;-63
2023/04/13 05:49:47;;;;;;;0.88;0.65;;;22.60;46.20;;;;;;5041353;28;20034;-63
2023/04/13 05:52:12;;;;;;;1.17;0.70;;;22.60;46.20;;;;;;5040520;28;20124;-63
2023/04/13 05:54:38;;;;;;;1.02;0.73;;;22.60;46.20;;;;;;5036390;28;20124;-63
2023/04/13 05:57:04;;;;;;;1.25;0.70;;;22.50;46.20;;;;;;5035666;28;20429;-63
2023/04/13 05:59:30;;;;;;;0.98;0.73;;;22.60;46.30;;;;;;5036818;28;20038;-63
2023/04/13 06:01:56;;;;;;;1.23;0.70;;;22.50;46.20;;;;;;5040651;28;20120;-63
2023/04/13 06:04:21;;;;;;;0.60;0.60;;;22.60;46.30;;;;;;5042202;28;20068;-63
2023/04/13 06:06:47;;;;;;;1.25;0.70;;;22.50;46.30;;;;;;5040068;28;20056;-63
2023/04/13 06:09:13;;;;;;;1.50;0.82;;;22.50;46.30;;;;;;5040218;28;20052;-63
2023/04/13 06:11:39;;;;;;;1.52;0.82;;;22.50;46.30;;;;;;5040236;28;20031;-63
2023/04/13 06:14:05;;;;;;;0.95;0.73;;;22.50;46.30;;;;;;5040881;28;20401;-63
2023/04/13 06:16:30;;;;;;;1.10;0.73;;;22.50;46.40;;;;;;5040392;28;20128;-63
2023/04/13 06:18:56;;;;;;;0.95;0.77;;;22.50;46.40;;;;;;5040224;28;20381;-63
2023/04/13 06:21:22;;;;;;;1.05;0.80;;;22.50;46.40;;;;;;5038333;28;20031;-63
2023/04/13 06:23:49;;;;;;;1.73;0.80;;;22.50;46.40;;;;;;5039091;28;20037;-63
2023/04/13 06:26:16;;;;;;;1.60;0.80;;;22.50;46.40;;;;;;5040549;28;20507;-63
2023/04/13 06:28:42;;;;;;;1.67;0.80;;;22.50;46.40;;;;;;5038531;28;20038;-63
2023/04/13 06:31:08;;;;;;;1.77;0.90;;;22.40;46.40;;;;;;5038684;28;20044;-63
2023/04/13 06:33:33;;;;;;;2.05;1.10;;;22.40;46.40;;;;;;5038451;28;20063;-63
2023/04/13 06:35:59;;;;;;;2.30;1.10;;;22.40;46.50;;;;;;5040701;28;20040;-63
2023/04/13 06:38:24;;;;;;;2.00;1.08;;;22.50;46.50;;;;;;5037740;28;20083;-63
2023/04/13 06:40:50;;;;;;;3.10;1.50;;;22.40;46.50;;;;;;5035685;28;20025;-63
2023/04/13 06:43:15;;;;;;;1.40;0.90;;;22.40;46.50;;;;;;5036086;28;20075;-63
2023/04/13 06:45:41;;;;;;;2.03;0.90;;;22.40;46.50;;;;;;5038953;28;20350;-63
2023/04/13 06:48:07;;;;;;;1.88;1.00;;;22.40;46.60;;;;;;5036660;28;20028;-63
2023/04/13 06:50:32;;;;;;;2.33;1.00;;;22.40;46.50;;;;;;5041014;28;20148;-63
2023/04/13 06:52:58;;;;;;;2.65;0.98;;;22.40;46.60;;;;;;5041443;28;20481;-63
2023/04/13 06:55:24;;;;;;;3.33;1.10;;;22.40;46.60;;;;;;5039018;28;20033;-63
2023/04/13 06:57:49;;;;;;;2.55;1.02;;;22.40;46.60;;;;;;5037092;28;20464;-63
2023/04/13 07:00:16;;;;;;;2.85;1.10;;;22.30;46.50;;;;;;5039203;28;20028;-63
2023/04/13 07:02:41;;;;;;;2.28;1.00;;;22.40;46.60;;;;;;5037562;28;20453;-62
2023/04/13 07:05:08;;;;;;;1.63;1.02;;;22.30;46.50;;;;;;5039430;28;20036;-63
2023/04/13 07:07:33;;;;;;;2.22;1.00;;;22.40;46.60;;;;;;5039270;28;20053;-63
2023/04/13 07:09:59;;;;;;;2.78;1.10;;;22.40;46.60;;;;;;5040372;28;20067;-63
2023/04/13 07:12:25;;;;;;;2.25;1.10;;;22.30;46.60;;;;;;5036979;28;20025;-63
2023/04/13 07:14:50;;;;;;;3.60;1.15;;;22.40;46.60;;;;;;5038288;28;20096;-63
2023/04/13 07:17:17;;;;;;;2.50;1.10;;;22.40;46.60;;;;;;5040433;28;20481;-63
2023/04/13 07:19:46;;;;;;;2.50;1.20;;;22.40;46.60;;;;;;5039451;28;20103;-63
2023/04/13 07:22:12;;;;;;;2.35;1.15;;;22.40;46.60;;;;;;5039040;28;20388;-63
2023/04/13 07:24:38;;;;;;;2.67;1.05;;;22.30;46.60;;;;;;5042283;28;20128;-63
2023/04/13 07:27:04;;;;;;;2.42;1.08;;;22.30;46.60;;;;;;5038484;28;20112;-63
2023/04/13 07:29:30;;;;;;;2.20;1.17;;;22.30;46.60;;;;;;5039270;28;20102;-63
2023/04/13 07:32:01;;;;;;;2.42;1.15;;;22.30;46.60;;;;;;5038361;28;20021;-63
2023/04/13 07:34:27;;;;;;;2.10;1.05;;;22.30;46.60;;;;;;5039859;28;20111;-63
2023/04/13 07:36:53;;;;;;;2.45;1.15;;;22.30;46.70;;;;;;5040900;28;20025;-63
2023/04/13 07:39:18;;;;;;;2.90;1.30;;;22.30;46.70;;;;;;5041718;28;20079;-63
2023/04/13 07:41:47;;;;;;;2.40;1.10;;;22.30;46.70;;;;;;5042735;28;20095;-63
2023/04/13 07:44:16;;;;;;;2.85;1.23;;;22.30;46.70;;;;;;5041194;28;20033;-64
2023/04/13 07:46:42;;;;;;;2.20;1.20;;;22.30;46.60;;;;;;5039216;28;20453;-63
2023/04/13 07:49:08;;;;;;;2.30;1.20;;;22.30;46.70;;;;;;5039427;28;20045;-63
2023/04/13 07:51:33;;;;;;;3.30;1.08;;;22.30;46.70;;;;;;5040598;28;20473;-63
2023/04/13 07:54:00;;;;;;;2.15;1.15;;;22.30;46.70;;;;;;5041637;28;20083;-63
2023/04/13 07:56:26;;;;;;;3.13;1.30;;;22.30;46.70;;;;;;5044303;28;20385;-63
2023/04/13 07:58:52;;;;;;;2.53;1.20;;;22.20;46.60;;;;;;5045690;28;20052;-63
2023/04/13 08:01:17;;;;;;;3.63;1.30;;;22.20;46.60;;;;;;5044587;28;20088;-63
2023/04/13 08:03:43;;;;;;;3.42;1.20;;;22.20;46.60;;;;;;5040542;28;20021;-63
2023/04/13 08:06:10;;;;;;;2.63;1.17;;;22.20;46.70;;;;;;5043171;28;20036;-63
2023/04/13 08:08:35;;;;;;;2.55;1.13;;;22.20;46.60;;;;;;5043245;28;20112;-63
2023/04/13 08:11:01;;;;;;;2.33;1.00;;;22.20;46.70;;;;;;5043396;28;20453;-63
2023/04/13 08:13:28;;;;;;;2.95;1.13;;;22.20;46.70;;;;;;5042770;28;20021;-63
2023/04/13 08:15:56;;;;;;;2.35;1.27;;;22.20;46.70;;;;;;5045595;28;20116;-63
2023/04/13 08:18:26;;;;;;;2.65;1.17;;;22.20;46.70;;;;;;5043149;28;20107;-63
2023/04/13 08:20:53;;;;;;;2.75;1.10;;;22.20;46.70;;;;;;5043761;28;20029;-63
2023/04/13 08:23:20;;;;;;;2.65;1.23;;;22.20;46.70;;;;;;5040598;28;20029;-63
2023/04/13 08:25:46;;;;;;;2.78;1.20;;;22.20;46.70;;;;;;5038283;28;20064;-63
2023/04/13 08:28:12;;;;;;;2.28;1.10;;;22.20;46.70;;;;;;5040318;28;20045;-63
2023/04/13 08:30:37;;;;;;;2.58;1.10;;;22.20;46.70;;;;;;5044357;28;20030;-63
2023/04/13 08:33:03;;;;;;;3.22;1.20;;;22.20;46.70;;;;;;5042969;28;20087;-63
2023/04/13 08:35:28;;;;;;;2.53;1.17;;;22.20;46.70;;;;;;5042178;28;20029;-63
2023/04/13 08:37:54;;;;;;;2.95;1.30;;;22.20;46.70;;;;;;5042884;28;20052;-63
2023/04/13 08:40:21;;;;;;;2.28;1.15;;;22.20;46.70;;;;;;5040784;28;20029;-63
2023/04/13 08:42:47;;;;;;;1.85;1.00;;;22.20;46.70;;;;;;5040720;28;20095;-63
2023/04/13 08:45:13;;;;;;;3.22;1.33;;;22.20;46.70;;;;;;5037867;28;20029;-63
2023/04/13 08:47:40;;;;;;;1.70;1.00;;;22.20;46.70;;;;;;5039932;28;20025;-62
2023/04/13 08:50:06;;;;;;;2.63;1.10;;;22.20;46.70;;;;;;5041257;28;20025;-62
2023/04/13 08:52:34;;;;;;;2.53;1.30;;;22.20;46.70;;;;;;5039815;28;20091;-63
2023/04/13 08:55:02;;;;;;;2.00;1.02;;;22.20;46.70;;;;;;5039579;28;20025;-61
2023/04/13 08:57:31;;;;;;;2.17;0.93;;;22.20;46.70;;;;;;5039032;28;20033;-63
2023/04/13 08:59:58;;;;;;;2.22;0.95;;;22.20;47.20;;;;;;5043088;28;20025;-62
2023/04/13 09:02:31;;;;;;;2.63;1.17;;;22.20;47.20;;;;;;5044814;28;20476;-62
2023/04/13 09:04:59;;;;;;;2.40;1.10;;;22.20;46.70;;;;;;5041670;28;20026;-62
2023/04/13 09:07:31;;;;;;;2.40;1.20;;;22.10;46.60;;;;;;5039150;28;20044;-63
2023/04/13 09:09:58;;;;;;;2.40;1.20;;;22.20;46.70;;;;;;5040820;28;20051;-63
2023/04/13 09:12:29;;;;;;;2.22;1.10;;;22.10;46.60;;;;;;5041710;28;20025;-63
2023/04/13 09:14:55;;;;;;;2.13;1.08;;;22.10;46.70;;;;;;5039721;28;20508;-62
2023/04/13 09:17:31;;;;;;;2.42;1.20;;;22.10;46.60;;;;;;5042412;28;20029;-63
2023/04/13 09:20:10;;;;;;;2.63;1.10;;;22.10;46.60;;;;;;5041645;28;20029;-62
2023/04/13 09:22:36;;;;;;;2.58;1.20;;;22.10;47.20;;;;;;5041992;28;20357;-63
2023/04/13 09:25:04;;;;;;;1.95;0.98;;;22.10;46.60;;;;;;5038893;28;20037;-63
2023/04/13 09:27:30;;;;;;;2.67;1.10;;;22.10;46.60;;;;;;5040815;28;20094;-63
2023/04/13 09:29:56;;;;;;;2.17;1.02;;;22.10;46.70;;;;;;5041621;28;20033;-63
2023/04/13 09:32:24;;;;;;;2.15;1.10;;;22.10;46.70;;;;;;5038964;28;20768;-62
2023/04/13 09:35:02;;;;;;;2.08;1.00;;;22.10;46.70;;;;;;5038598;28;20091;-61
2023/04/13 09:37:31;;;;;;;1.70;1.00;;;22.10;46.80;;;;;;5040616;28;20432;-62
2023/04/13 09:40:10;;;;;;;2.08;1.00;;;22.10;46.80;;;;;;5038557;28;20634;-63
2023/04/13 09:42:37;;;;;;;2.60;1.20;;;22.10;46.80;;;;;;5037849;28;20029;-62
2023/04/13 09:45:03;;;;;;;2.38;1.20;;;22.10;46.70;;;;;;5039647;28;20037;-62
2023/04/13 09:47:37;;;;;;;1.95;1.05;;;22.10;46.80;;;;;;5042781;28;20110;-62
2023/04/13 09:50:06;;;;;;;2.13;1.00;;;22.10;46.80;;;;;;5039650;28;20025;-63
2023/04/13 09:52:32;;;;;;;2.65;1.20;;;22.10;46.70;;;;;;5043218;28;20025;-62
2023/04/13 09:54:57;;;;;;;1.63;1.00;;;22.10;46.80;;;;;;5039861;28;20038;-62
2023/04/13 09:57:24;;;;;;;1.55;0.93;;;22.10;46.80;;;;;;5041887;28;20044;-62
2023/04/13 09:59:51;;;;;;;3.08;1.10;;;22.10;46.70;;;;;;5037388;28;20487;-63
2023/04/13 10:02:18;;;;;;;2.30;1.20;;;22.10;46.70;;;;;;5038104;28;20033;-63
2023/04/13 10:04:44;;;;;;;2.03;1.00;;;22.10;46.80;;;;;;5039608;28;20505;-63
2023/04/13 10:07:12;;;;;;;2.25;1.10;;;22.10;46.80;;;;;;5038582;28;20029;-63
2023/04/13 10:09:38;;;;;;;2.78;1.10;;;22.10;46.80;;;;;;5040186;28;20106;-63
2023/04/13 10:12:05;;;;;;;2.40;1.10;;;22.10;46.80;;;;;;5040833;28;20764;-63
2023/04/13 10:14:38;;;;;;;2.40;1.10;;;22.10;46.80;;;;;;5039361;28;20044;-62
2023/04/13 10:17:21;;;;;;;2.15;1.02;;;22.10;46.80;;;;;;5042033;28;20032;-63
2023/04/13 10:19:52;;;;;;;2.25;1.00;;;22.10;46.80;;;;;;5039415;28;20025;-63
2023/04/13 10:22:21;;;;;;;2.03;1.00;;;22.10;47.40;;;;;;5042591;28;20647;-63
2023/04/13 10:24:47;;;;;;;1.73;0.90;;;22.10;46.80;;;;;;5036966;28;20022;-63
2023/04/13 10:27:17;;;;;;;2.13;1.00;;;22.10;46.90;;;;;;5039010;28;20128;-62
2023/04/13 10:29:43;;;;;;;2.10;0.95;;;22.10;46.90;;;;;;5039510;28;20052;-62
2023/04/13 10:32:20;;;;;;;1.85;0.90;;;22.10;46.90;;;;;;5040907;28;20478;-63
2023/04/13 10:34:46;;;;;;;1.83;0.90;;;22.10;46.90;;;;;;5043168;28;20491;-62
2023/04/13 10:37:18;;;;;;;2.30;1.00;;;22.10;46.90;;;;;;5036919;28;20048;-62
2023/04/13 10:39:45;;;;;;;2.03;1.00;;;22.10;46.90;;;;;;5037772;28;20029;-62
2023/04/13 10:42:12;;;;;;;2.20;0.95;;;22.10;47.00;;;;;;5039672;28;20033;-62
2023/04/13 10:44:45;;;;;;;1.90;1.00;;;22.10;47.00;;;;;;5039139;28;20086;-62
2023/04/13 10:47:12;;;;;;;1.77;0.95;;;22.10;46.90;;;;;;5043457;28;20028;-62
2023/04/13 10:49:39;;;;;;;2.17;1.00;;;22.00;46.90;;;;;;5040041;28;20487;-62
2023/04/13 10:52:05;;;;;;;3.20;1.20;;;22.10;46.90;;;;;;5037483;28;20063;-62
2023/04/13 10:54:33;;;;;;;2.15;1.00;;;22.10;46.90;;;;;;5040471;28;20060;-62
2023/04/13 10:57:01;;;;;;;2.05;1.10;;;22.00;46.90;;;;;;5036945;28;20071;-63
2023/04/13 10:59:39;;;;;;;2.53;1.00;;;22.10;46.90;;;;;;5035267;28;20036;-63
2023/04/13 11:02:09;;;;;;;1.60;1.00;;;22.00;46.90;;;;;;5041335;28;20528;-62
2023/04/13 11:04:40;;;;;;;1.30;0.85;;;22.00;46.90;;;;;;5033239;28;20599;-62
2023/04/13 11:07:07;;;;;;;2.17;1.23;;;22.00;47.00;;;;;;5036839;28;20040;-61
2023/04/13 11:09:33;;;;;;;2.28;1.00;;;22.00;46.90;;;;;;5037089;28;20025;-63
2023/04/13 11:11:58;;;;;;;1.90;1.00;;;22.10;46.90;;;;;;5040777;28;20136;-63
2023/04/13 11:14:24;;;;;;;2.10;1.00;;;22.00;46.90;;;;;;5038709;28;20032;-62
2023/04/13 11:16:49;;;;;;;2.33;1.00;;;22.10;47.00;;;;;;5042968;28;20033;-62
2023/04/13 11:19:15;;;;;;;3.05;1.10;;;22.00;47.10;;;;;;5038541;28;20385;-62
2023/04/13 11:21:43;;;;;;;2.50;1.15;;;22.00;47.10;;;;;;5038139;28;20396;-64
2023/04/13 11:24:09;;;;;;;2.83;1.02;;;22.10;47.30;;;;;;5038200;28;20028;-63
2023/04/13 11:26:39;;;;;;;3.70;1.20;;;22.10;47.40;;;;;;5038968;28;20365;-64
2023/04/13 11:29:05;;;;;;;3.08;1.20;;;22.10;47.40;;;;;;5037408;28;20481;-63
2023/04/13 11:31:38;;;;;;;1.83;0.98;;;22.10;47.30;;;;;;5045522;28;20139;-62
2023/04/13 11:34:08;;;;;;;2.22;1.05;;;22.20;47.40;;;;;;5044689;28;20090;-63
2023/04/13 11:36:34;;;;;;;;;;;22.20;47.40;;;;;;5037986;28;20026;-63
2023/04/13 11:39:00;;;;;;;1.77;1.00;;;22.20;47.30;;;;;;5040744;28;19905;-63
2023/04/13 11:41:27;;;;;;;1.98;0.90;;;22.20;47.20;;;;;;5040840;28;20026;-63
2023/04/13 11:43:53;;;;;;;3.25;1.30;;;22.30;47.20;;;;;;5036707;28;20477;-63
2023/04/13 11:46:25;;;;;;;1.75;1.02;;;22.30;47.20;;;;;;5036884;28;20040;-64
2023/04/13 11:48:51;;;;;;;2.20;1.10;;;22.40;47.10;;;;;;5040038;28;20036;-63
2023/04/13 11:51:19;;;;;;;1.77;0.95;;;22.30;47.00;;;;;;5042013;28;20100;-64
2023/04/13 11:53:45;;;;;;;3.08;1.08;;;22.40;46.80;;;;;;5039332;28;20021;-64
2023/04/13 11:56:11;;;;;;;2.38;1.13;;;22.40;46.70;;;;;;5037715;28;20053;-62
2023/04/13 11:58:38;;;;;;;2.00;1.10;;;22.40;46.50;;;;;;5038568;28;20029;-63
2023/04/13 12:01:08;;;;;;;2.13;1.05;;;22.50;46.70;;;;;;5037871;28;20543;-63
2023/04/13 12:03:35;;;;;;;3.08;1.20;;;22.50;46.40;;;;;;5038803;28;20059;-64
2023/04/13 12:06:01;;;;;;;2.40;1.02;;;22.50;46.30;;;;;;5045772;28;20029;-64
2023/04/13 12:08:28;;;;;;;3.17;1.23;;;22.50;46.20;;;;;;5037878;28;20060;-64
2023/04/13 12:10:59;;;;;;;2.78;1.30;;;22.60;46.00;;;;;;5039239;28;20040;-63
2023/04/13 12:13:25;;;;;;;2.90;1.40;;;22.60;46.10;;;;;;5041042;28;20028;-65
2023/04/13 12:15:52;;;;;;;3.67;1.20;;;22.60;46.10;;;;;;5035046;28;20055;-65
2023/04/13 12:18:21;;;;;;;2.90;1.20;;;22.60;45.90;;;;;;5040200;28;20501;-63
2023/04/13 12:20:48;;;;;;;2.63;1.20;;;22.60;45.90;;;;;;5037740;28;20478;-65
2023/04/13 12:23:23;;;;;;;2.58;1.08;;;22.60;45.90;;;;;;5037844;28;20040;-63
2023/04/13 12:26:15;;;;;;;2.05;1.15;;;22.70;46.00;;;;;;5038796;28;20036;-63
2023/04/13 12:28:41;;;;;;;2.30;1.20;;;22.70;45.90;;;;;;5035573;28;20038;-62
2023/04/13 12:31:08;;;;;;;3.00;1.30;;;22.70;45.90;;;;;;5038937;28;20056;-63
2023/04/13 12:33:35;;;;;;;2.00;1.10;;;22.80;46.00;;;;;;5035358;28;20029;-64
2023/04/13 12:36:01;;;;;;;2.83;1.40;;;22.80;46.40;;;;;;5041402;28;20087;-64
2023/04/13 12:38:26;;;;;;;3.53;1.38;;;22.80;45.80;;;;;;5037811;28;20025;-64
2023/04/13 12:40:59;;;;;;;2.67;1.45;;;22.80;45.90;;;;;;5040379;28;20029;-64
2023/04/13 12:43:26;;;;;;;2.75;1.27;;;22.80;45.90;;;;;;5042330;28;20029;-63
2023/04/13 12:45:53;;;;;;;2.33;1.20;;;22.90;46.40;;;;;;5040402;28;20024;-63
2023/04/13 12:48:19;;;;;;;2.58;1.20;;;22.90;45.90;;;;;;5040394;28;20048;-64